Time;durP1;ratioP1;P1;durP2;ratioP2;P2;SDS_P1;SDS_P2;PMS_P1;PMS_P2;Temp;Humidity;BMP_temperature;BMP_pressure;BME280_temperature;BME280_humidity;BME280_pressure;Samples;Min_cycle;Max_cycle;Signal;HPM_P1;HPM_P2
2023/05/07 12:02:09;;;;;;;;;14.33;11.67;;;;;;;;5103659;27;13402;-69
2023/05/07 12:04:34;;;;;;;;;5.00;4.00;;;;;;;;5107207;28;9221;-67
2023/05/07 12:06:59;;;;;;;;;5.00;3.67;;;;;;;;5106805;28;8916;-69
2023/05/07 12:09:25;;;;;;;;;4.67;4.00;;;;;;;;5107795;28;8799;-69
2023/05/07 12:11:51;;;;;;;;;2.33;2.33;;;;;;;;5106942;28;8826;-70
2023/05/07 12:14:16;;;;;;;;;4.00;3.00;;;;;;;;5106648;28;8884;-68
2023/05/07 12:16:42;;;;;;;;;2.00;2.00;;;;;;;;5107793;28;8824;-69
2023/05/07 12:19:08;;;;;;;;;3.00;3.00;;;;;;;;5106175;28;8850;-69
2023/05/07 12:21:35;;;;;;;;;2.00;2.00;;;;;;;;5107610;28;8930;-69
2023/05/07 12:24:01;;;;;;;;;5.00;2.25;;;;;;;;5118053;27;9024;-70
2023/05/07 12:26:26;;;;;;;;;3.00;2.00;;;;;;;;5128275;27;8899;-68
2023/05/07 12:28:52;;;;;;;;;1.67;1.67;;;;;;;;5128149;27;8904;-68
2023/05/07 12:31:17;;;;;;;;;2.00;2.00;;;;;;;;5127852;27;8813;-68
2023/05/07 12:33:42;;;;;;;;;3.00;2.00;;;;;;;;5115045;27;8799;-68
2023/05/07 12:36:08;;;;;;;;;72.00;58.25;;;;;;;;5107607;28;8877;-68
2023/05/07 12:38:40;;;;;;;;;3.00;3.00;;;;;;;;5107591;28;8811;-66
2023/05/07 12:41:07;;;;;;;;;2.50;2.50;;;;;;;;5107430;28;8827;-65
2023/05/07 12:43:32;;;;;;;;;3.00;3.00;;;;;;;;5105786;28;8824;-67
2023/05/07 12:45:59;;;;;;;;;3.33;3.00;;;;;;;;5107171;28;8863;-66
2023/05/07 12:48:26;;;;;;;;;3.00;3.00;;;;;;;;5107389;28;8835;-65
2023/05/07 12:50:56;;;;;;;;;2.00;2.00;;;;;;;;5107149;28;8784;-66
2023/05/07 12:53:22;;;;;;;;;4.00;4.00;;;;;;;;5104418;28;8874;-66
2023/05/07 12:55:48;;;;;;;;;3.00;3.00;;;;;;;;5107225;28;9092;-65
2023/05/07 12:58:15;;;;;;;;;3.33;3.33;;;;;;;;5107037;28;9148;-66
2023/05/07 13:00:42;;;;;;;;;5.00;4.00;;;;;;;;5106609;28;9043;-66
2023/05/07 13:03:08;;;;;;;;;4.33;3.00;;;;;;;;5105397;28;8900;-66
2023/05/07 13:05:33;;;;;;;;;3.00;3.00;;;;;;;;5106715;28;9019;-65
2023/05/07 13:07:58;;;;;;;;;4.00;3.00;;;;;;;;5105461;28;8858;-65
2023/05/07 13:10:24;;;;;;;;;2.67;2.67;;;;;;;;5106772;28;8816;-65
2023/05/07 13:12:50;;;;;;;;;4.67;3.00;;;;;;;;5095945;28;8819;-67
2023/05/07 13:15:16;;;;;;;;;4.00;3.00;;;;;;;;5093274;28;8784;-66
2023/05/07 13:17:41;;;;;;;;;2.00;2.00;;;;;;;;5093099;28;8792;-66
2023/05/07 13:20:08;;;;;;;;;4.00;3.00;;;;;;;;5092983;28;8816;-66
2023/05/07 13:22:33;;;;;;;;;2.00;2.00;;;;;;;;5091950;28;8808;-66
2023/05/07 13:24:58;;;;;;;;;3.00;3.00;;;;;;;;5112499;28;8907;-66
2023/05/07 13:27:24;;;;;;;;;3.67;3.00;;;;;;;;5113453;28;8896;-65
2023/05/07 13:29:49;;;;;;;;;2.67;2.00;;;;;;;;5113518;28;8789;-66
2023/05/07 13:32:14;;;;;;;;;4.00;3.00;;;;;;;;5110439;28;8789;-68
2023/05/07 13:34:40;;;;;;;;;3.00;3.00;;;;;;;;5096158;28;8798;-67
2023/05/07 13:37:07;;;;;;;;;3.00;2.67;;;;;;;;5093061;28;8781;-68
2023/05/07 13:39:32;;;;;;;;;4.00;3.00;;;;;;;;5092986;28;8798;-68
2023/05/07 13:41:58;;;;;;;;;3.33;3.00;;;;;;;;5092937;28;8890;-68
2023/05/07 13:44:23;;;;;;;;;5.67;4.33;;;;;;;;5091482;28;8812;-68
2023/05/07 13:46:48;;;;;;;;;4.00;2.67;;;;;;;;5092861;28;8777;-69
2023/05/07 13:49:13;;;;;;;;;3.67;3.00;;;;;;;;5092439;28;8910;-69
2023/05/07 13:51:39;;;;;;;;;2.67;2.00;;;;;;;;5092720;28;8810;-68
2023/05/07 13:54:04;;;;;;;;;4.00;4.00;;;;;;;;5088216;28;8812;-69
2023/05/07 13:56:31;;;;;;;;;2.33;2.00;;;;;;;;5086207;28;8924;-69
2023/05/07 13:58:57;;;;;;;;;2.33;2.33;;;;;;;;5092030;28;8800;-67
2023/05/07 14:01:22;;;;;;;;;2.00;2.00;;;;;;;;5092458;28;8892;-67
2023/05/07 14:03:47;;;;;;;;;3.00;3.00;;;;;;;;5090991;28;8809;-67
2023/05/07 14:06:13;;;;;;;;;2.00;2.00;;;;;;;;5092753;28;8873;-66
2023/05/07 14:08:38;;;;;;;;;4.00;3.00;;;;;;;;5092429;28;8804;-66
2023/05/07 14:11:03;;;;;;;;;4.00;2.00;;;;;;;;5092439;28;8781;-67
2023/05/07 14:13:30;;;;;;;;;3.00;2.00;;;;;;;;5094721;28;8808;-69
2023/05/07 14:15:56;;;;;;;;;3.00;3.00;;;;;;;;5092267;28;8850;-65
2023/05/07 14:18:21;;;;;;;;;3.00;3.00;;;;;;;;5092163;28;9684;-66
2023/05/07 14:20:48;;;;;;;;;3.00;2.00;;;;;;;;5092128;28;8865;-66
2023/05/07 14:23:14;;;;;;;;;4.67;3.00;;;;;;;;5095523;28;8790;-67
2023/05/07 14:25:39;;;;;;;;;3.00;2.00;;;;;;;;5091676;28;9036;-68
2023/05/07 14:28:04;;;;;;;;;5.00;3.67;;;;;;;;5091932;28;8792;-69
2023/05/07 14:30:29;;;;;;;;;1.67;1.67;;;;;;;;5091955;28;8788;-68
2023/05/07 14:32:55;;;;;;;;;2.00;2.00;;;;;;;;5092564;28;9532;-69
2023/05/07 14:35:20;;;;;;;;;4.00;3.00;;;;;;;;5091407;28;9511;-68
2023/05/07 14:37:45;;;;;;;;;3.67;3.00;;;;;;;;5091862;28;8776;-67
2023/05/07 14:40:11;;;;;;;;;2.33;2.00;;;;;;;;5091695;28;8830;-67
2023/05/07 14:42:36;;;;;;;;;4.00;3.00;;;;;;;;5090682;28;8884;-69
2023/05/07 14:45:02;;;;;;;;;4.33;3.00;;;;;;;;5090090;28;9542;-67
2023/05/07 14:47:27;;;;;;;;;2.00;2.00;;;;;;;;5091551;28;8895;-68
2023/05/07 14:49:53;;;;;;;;;2.67;2.67;;;;;;;;5091452;28;8776;-68
2023/05/07 14:52:18;;;;;;;;;2.00;2.00;;;;;;;;5090534;28;8800;-67
2023/05/07 14:54:43;;;;;;;;;2.33;2.00;;;;;;;;5091212;28;8803;-67
2023/05/07 14:57:09;;;;;;;;;3.33;3.00;;;;;;;;5091342;28;8821;-67
2023/05/07 14:59:35;;;;;;;;;2.00;2.00;;;;;;;;5091493;28;8899;-68
2023/05/07 15:02:00;;;;;;;;;2.00;2.00;;;;;;;;5091260;28;9094;-68
2023/05/07 15:04:25;;;;;;;;;2.33;2.33;;;;;;;;5090247;28;8839;-68
2023/05/07 15:06:52;;;;;;;;;2.00;2.00;;;;;;;;5091529;28;8786;-67
2023/05/07 15:09:17;;;;;;;;;3.00;2.33;;;;;;;;5091169;28;8793;-68
2023/05/07 15:11:42;;;;;;;;;2.00;2.00;;;;;;;;5091243;28;8895;-68
2023/05/07 15:14:08;;;;;;;;;2.00;2.00;;;;;;;;5090084;28;8792;-68
2023/05/07 15:16:33;;;;;;;;;3.00;3.00;;;;;;;;5091432;28;8814;-68
2023/05/07 15:18:59;;;;;;;;;20.00;18.25;;;;;;;;5089625;28;8827;-68
2023/05/07 15:21:26;;;;;;;;;17.00;14.50;;;;;;;;5047749;28;9801;-67
2023/05/07 15:23:51;;;;;;;;;13.25;12.50;;;;;;;;5047467;28;8883;-69
2023/05/07 15:26:16;;;;;;;;;15.50;13.25;;;;;;;;5050565;28;9421;-69
2023/05/07 15:28:42;;;;;;;;;10.00;7.67;;;;;;;;5050637;28;8797;-69
2023/05/07 15:31:07;;;;;;;;;9.00;7.00;;;;;;;;5050247;28;8841;-69
2023/05/07 15:33:33;;;;;;;;;10.33;7.00;;;;;;;;5037555;28;8840;-74
2023/05/07 15:35:58;;;;;;;;;5.33;4.00;;;;;;;;5029620;28;8860;-71
2023/05/07 15:38:24;;;;;;;;;4.00;3.33;;;;;;;;5029611;28;8778;-75
2023/05/07 15:40:50;;;;;;;;;6.75;6.75;;;;;;;;5029528;28;8840;-71
2023/05/07 15:43:15;;;;;;;;;10.00;6.33;;;;;;;;5028095;28;9321;-71
2023/05/07 15:45:41;;;;;;;;;6.00;5.00;;;;;;;;5012665;28;8843;-71
2023/05/07 15:48:07;;;;;;;;;6.33;6.00;;;;;;;;5011077;28;8768;-71
2023/05/07 15:50:32;;;;;;;;;7.00;3.67;;;;;;;;5010389;28;8924;-71
2023/05/07 15:52:58;;;;;;;;;4.00;4.00;;;;;;;;5023344;28;9387;-71
2023/05/07 15:55:23;;;;;;;;;3.00;3.00;;;;;;;;5030915;28;8817;-71
2023/05/07 15:57:48;;;;;;;;;2.00;2.00;;;;;;;;5030248;28;8797;-71
2023/05/07 16:00:15;;;;;;;;;2.00;2.00;;;;;;;;4972927;28;10651;-71
2023/05/07 16:02:41;;;;;;;;;2.00;2.00;;;;;;;;5007582;28;8828;-72
2023/05/07 16:05:09;;;;;;;;;3.00;2.33;;;;;;;;5008330;28;8918;-70
2023/05/07 16:07:35;;;;;;;;;2.67;2.67;;;;;;;;5016104;28;8818;-70
2023/05/07 16:10:00;;;;;;;;;4.00;2.00;;;;;;;;5009211;28;9165;-68
2023/05/07 16:12:25;;;;;;;;;3.00;2.00;;;;;;;;5008311;28;8843;-71
2023/05/07 16:14:51;;;;;;;;;1.00;1.00;;;;;;;;5007760;28;8796;-70
2023/05/07 16:17:16;;;;;;;;;3.00;3.00;;;;;;;;5008981;28;8815;-70
2023/05/07 16:19:41;;;;;;;;;3.67;3.00;;;;;;;;5009462;28;8816;-70
2023/05/07 16:22:07;;;;;;;;;1.33;1.33;;;;;;;;5010044;28;8902;-70
2023/05/07 16:24:32;;;;;;;;;2.00;2.00;;;;;;;;5008939;28;8938;-71
2023/05/07 16:26:57;;;;;;;;;4.00;2.00;;;;;;;;5010162;28;8797;-70
2023/05/07 16:29:23;;;;;;;;;2.00;2.00;;;;;;;;5008716;28;8815;-71
2023/05/07 16:31:48;;;;;;;;;2.00;2.00;;;;;;;;5008780;28;8820;-70
2023/05/07 16:34:13;;;;;;;;;1.67;1.67;;;;;;;;5009989;28;8835;-70
2023/05/07 16:36:39;;;;;;;;;2.00;2.00;;;;;;;;5005907;28;8835;-70
2023/05/07 16:39:04;;;;;;;;;2.00;1.00;;;;;;;;5010260;28;8931;-70
2023/05/07 16:41:29;;;;;;;;;1.67;1.67;;;;;;;;5010048;28;8843;-70
2023/05/07 16:43:56;;;;;;;;;2.25;2.00;;;;;;;;5010073;28;9566;-71
2023/05/07 16:46:21;;;;;;;;;2.00;2.00;;;;;;;;5010154;28;8804;-70
2023/05/07 16:48:47;;;;;;;;;2.00;2.00;;;;;;;;5006822;28;9374;-70
2023/05/07 16:51:12;;;;;;;;;1.00;1.00;;;;;;;;4994288;28;8814;-70
2023/05/07 16:53:37;;;;;;;;;2.33;1.33;;;;;;;;4994253;28;8794;-74
2023/05/07 16:56:03;;;;;;;;;2.67;2.00;;;;;;;;4994265;28;8790;-71
2023/05/07 16:58:29;;;;;;;;;1.00;1.00;;;;;;;;5025583;28;8777;-71
2023/05/07 17:00:54;;;;;;;;;2.33;1.67;;;;;;;;5033461;28;9143;-72
2023/05/07 17:03:19;;;;;;;;;3.00;3.00;;;;;;;;5027730;28;8815;-70
2023/05/07 17:05:45;;;;;;;;;1.33;1.00;;;;;;;;5013790;28;8885;-70
2023/05/07 17:08:12;;;;;;;;;1.67;1.67;;;;;;;;5025190;28;8928;-71
2023/05/07 17:10:37;;;;;;;;;3.00;3.00;;;;;;;;5033232;28;8814;-71
2023/05/07 17:13:03;;;;;;;;;3.00;3.00;;;;;;;;5033068;28;9295;-70
2023/05/07 17:15:28;;;;;;;;;0.67;0.67;;;;;;;;5033288;28;8835;-71
2023/05/07 17:17:53;;;;;;;;;0.67;0.00;;;;;;;;5029245;28;8836;-72
2023/05/07 17:20:19;;;;;;;;;3.00;2.00;;;;;;;;5032957;28;8809;-70
2023/05/07 17:22:44;;;;;;;;;2.25;2.25;;;;;;;;5033148;28;8808;-70
2023/05/07 17:25:09;;;;;;;;;3.50;3.50;;;;;;;;5033017;28;8806;-72
2023/05/07 17:27:35;;;;;;;;;2.00;2.00;;;;;;;;5029318;28;8833;-70
2023/05/07 17:30:00;;;;;;;;;2.00;1.75;;;;;;;;5032946;28;9675;-69
2023/05/07 17:32:26;;;;;;;;;1.25;1.25;;;;;;;;5032996;28;8812;-69
2023/05/07 17:34:51;;;;;;;;;1.75;1.75;;;;;;;;5010933;28;8859;-71
2023/05/07 17:37:16;;;;;;;;;2.25;2.00;;;;;;;;4998594;28;8951;-69
2023/05/07 17:39:42;;;;;;;;;2.00;2.00;;;;;;;;5012914;28;8791;-70
2023/05/07 17:42:07;;;;;;;;;2.25;1.50;;;;;;;;5012997;28;8861;-69
2023/05/07 17:44:33;;;;;;;;;2.75;2.75;;;;;;;;5011194;28;9543;-70
2023/05/07 17:46:58;;;;;;;;;3.00;2.00;;;;;;;;5014355;28;8805;-70
2023/05/07 17:49:24;;;;;;;;;3.00;3.00;;;;;;;;5032376;28;9897;-72
2023/05/07 17:51:49;;;;;;;;;4.00;2.00;;;;;;;;5032705;28;8837;-71
2023/05/07 17:54:14;;;;;;;;;1.00;1.00;;;;;;;;5032389;28;8852;-71
2023/05/07 17:56:40;;;;;;;;;1.75;1.75;;;;;;;;5027976;28;8928;-70
2023/05/07 17:59:05;;;;;;;;;2.75;1.00;;;;;;;;5026823;28;8815;-68
2023/05/07 18:01:32;;;;;;;;;1.00;1.00;;;;;;;;5011764;28;8862;-74
2023/05/07 18:03:58;;;;;;;;;2.25;2.25;;;;;;;;5012330;28;8808;-71
2023/05/07 18:06:23;;;;;;;;;6.00;2.00;;;;;;;;5006890;28;10151;-69
2023/05/07 18:08:48;;;;;;;;;2.00;2.00;;;;;;;;5042478;28;8837;-72
2023/05/07 18:11:14;;;;;;;;;6.00;3.25;;;;;;;;5030238;28;8820;-69
2023/05/07 18:13:39;;;;;;;;;3.00;2.00;;;;;;;;5029676;28;8896;-69
2023/05/07 18:16:04;;;;;;;;;1.00;1.00;;;;;;;;5028597;28;8903;-72
2023/05/07 18:18:31;;;;;;;;;1.00;1.00;;;;;;;;5005668;28;8963;-74
2023/05/07 18:20:56;;;;;;;;;1.50;1.50;;;;;;;;4988860;28;8850;-70
2023/05/07 18:23:22;;;;;;;;;3.50;2.50;;;;;;;;4990279;28;10039;-73
2023/05/07 18:25:47;;;;;;;;;2.00;2.00;;;;;;;;4991149;28;8821;-70
2023/05/07 18:28:12;;;;;;;;;2.00;2.00;;;;;;;;5016739;28;8940;-72
2023/05/07 18:30:38;;;;;;;;;2.00;2.00;;;;;;;;5030664;28;8830;-72
2023/05/07 18:33:03;;;;;;;;;2.00;2.00;;;;;;;;5034263;28;8839;-70
2023/05/07 18:35:29;;;;;;;;;1.50;1.50;;;;;;;;5010458;28;9615;-69
2023/05/07 18:37:54;;;;;;;;;2.00;2.00;;;;;;;;5010877;28;8805;-71
2023/05/07 18:40:20;;;;;;;;;3.00;2.00;;;;;;;;5010416;28;10067;-72
2023/05/07 18:42:45;;;;;;;;;4.00;3.00;;;;;;;;5009451;28;8793;-72
2023/05/07 18:45:11;;;;;;;;;2.00;2.00;;;;;;;;5005093;28;8803;-74
2023/05/07 18:47:36;;;;;;;;;12.25;9.50;;;;;;;;5012123;28;8831;-71
2023/05/07 18:50:01;;;;;;;;;4.25;3.25;;;;;;;;5011087;28;8796;-71
2023/05/07 18:52:28;;;;;;;;;4.50;4.00;;;;;;;;5011773;28;8813;-72
2023/05/07 18:54:53;;;;;;;;;3.00;2.00;;;;;;;;5010422;28;9576;-73
2023/05/07 18:57:18;;;;;;;;;2.75;2.75;;;;;;;;5012993;28;9866;-70
2023/05/07 18:59:43;;;;;;;;;4.00;3.00;;;;;;;;5029767;28;8793;-71
2023/05/07 19:02:12;;;;;;;;;2.00;2.00;;;;;;;;5024483;28;8876;-70
2023/05/07 19:04:38;;;;;;;;;4.25;3.25;;;;;;;;5014782;28;8844;-71
2023/05/07 19:07:03;;;;;;;;;6.00;4.50;;;;;;;;5014077;28;10237;-69
2023/05/07 19:09:28;;;;;;;;;4.00;4.00;;;;;;;;5018350;28;8838;-73
2023/05/07 19:11:54;;;;;;;;;3.75;3.75;;;;;;;;5018111;28;8832;-73
2023/05/07 19:14:19;;;;;;;;;4.00;3.00;;;;;;;;5019804;28;8805;-73
2023/05/07 19:16:45;;;;;;;;;5.00;4.00;;;;;;;;5017710;28;10410;-73
2023/05/07 19:19:10;;;;;;;;;4.00;3.00;;;;;;;;5019335;28;9554;-74
2023/05/07 19:21:35;;;;;;;;;3.00;3.00;;;;;;;;5014694;28;8846;-75
2023/05/07 19:24:01;;;;;;;;;4.00;4.00;;;;;;;;5004016;28;8855;-72
2023/05/07 19:26:26;;;;;;;;;4.75;3.00;;;;;;;;5006448;28;8940;-71
2023/05/07 19:28:51;;;;;;;;;5.00;5.00;;;;;;;;5008237;28;8842;-73
2023/05/07 19:31:17;;;;;;;;;6.75;6.50;;;;;;;;5006794;28;8887;-72
2023/05/07 19:33:42;;;;;;;;;4.00;4.00;;;;;;;;5008957;28;8958;-71
2023/05/07 19:36:08;;;;;;;;;3.50;3.00;;;;;;;;5008788;28;11475;-71
2023/05/07 19:38:33;;;;;;;;;4.75;3.50;;;;;;;;5010471;28;8816;-73
2023/05/07 19:40:59;;;;;;;;;3.00;3.00;;;;;;;;5009473;28;8844;-72
2023/05/07 19:43:24;;;;;;;;;8.00;7.00;;;;;;;;5009421;28;8796;-72
2023/05/07 19:45:51;;;;;;;;;4.25;4.25;;;;;;;;5008188;28;11113;-71
2023/05/07 19:48:16;;;;;;;;;4.50;4.00;;;;;;;;5010423;28;8801;-70
2023/05/07 19:50:42;;;;;;;;;8.00;8.00;;;;;;;;5009144;28;10139;-74
2023/05/07 19:53:07;;;;;;;;;4.00;4.00;;;;;;;;5009418;28;9985;-71
2023/05/07 19:55:32;;;;;;;;;9.50;7.50;;;;;;;;5007009;28;8930;-71
2023/05/07 19:57:58;;;;;;;;;5.50;4.75;;;;;;;;5007809;28;8811;-73
2023/05/07 20:00:26;;;;;;;;;5.00;4.50;;;;;;;;5009649;28;8824;-73
2023/05/07 20:02:51;;;;;;;;;5.00;5.00;;;;;;;;5009366;28;8816;-72
2023/05/07 20:05:16;;;;;;;;;3.50;3.50;;;;;;;;5008402;28;10092;-71
2023/05/07 20:07:43;;;;;;;;;3.50;3.50;;;;;;;;5008464;28;8829;-75
2023/05/07 20:10:08;;;;;;;;;3.00;3.00;;;;;;;;5029867;28;8948;-72
2023/05/07 20:12:34;;;;;;;;;4.00;4.00;;;;;;;;5008887;28;10185;-82
2023/05/07 20:14:59;;;;;;;;;7.00;4.50;;;;;;;;5009218;28;8808;-85
2023/05/07 20:17:25;;;;;;;;;3.00;3.00;;;;;;;;5010475;28;8813;-82
2023/05/07 20:19:50;;;;;;;;;4.00;4.00;;;;;;;;5008875;28;8837;-82
2023/05/07 20:22:15;;;;;;;;;3.50;3.50;;;;;;;;5010027;28;8906;-82
2023/05/07 20:24:41;;;;;;;;;6.50;4.25;;;;;;;;5013624;28;8816;-74
2023/05/07 20:27:06;;;;;;;;;4.00;4.00;;;;;;;;5013946;28;8819;-73
2023/05/07 20:29:32;;;;;;;;;7.50;4.00;;;;;;;;5013475;28;8812;-73
2023/05/07 20:31:58;;;;;;;;;5.25;5.25;;;;;;;;5009737;28;8906;-73
2023/05/07 20:34:23;;;;;;;;;4.25;4.00;;;;;;;;5010737;28;10210;-72
2023/05/07 20:36:48;;;;;;;;;3.75;2.75;;;;;;;;5026973;28;8847;-74
2023/05/07 20:39:14;;;;;;;;;3.25;3.25;;;;;;;;5014165;28;8808;-71
2023/05/07 20:41:40;;;;;;;;;4.00;4.00;;;;;;;;5012425;28;8827;-71
2023/05/07 20:44:05;;;;;;;;;3.00;3.00;;;;;;;;5012757;28;10205;-72
2023/05/07 20:46:31;;;;;;;;;3.00;3.00;;;;;;;;5012094;28;8800;-72
2023/05/07 20:48:56;;;;;;;;;8.00;3.50;;;;;;;;5013814;28;8814;-73
2023/05/07 20:51:21;;;;;;;;;4.75;4.00;;;;;;;;5013898;28;8827;-72
2023/05/07 20:53:47;;;;;;;;;6.75;6.50;;;;;;;;5014260;28;8812;-72
2023/05/07 20:56:12;;;;;;;;;8.00;8.00;;;;;;;;5023281;28;8914;-72
2023/05/07 20:58:37;;;;;;;;;7.00;7.00;;;;;;;;5033625;28;8794;-72
2023/05/07 21:01:03;;;;;;;;;9.75;7.00;;;;;;;;5032149;28;8933;-71
2023/05/07 21:03:28;;;;;;;;;6.25;4.50;;;;;;;;5025286;28;8812;-72
2023/05/07 21:05:55;;;;;;;;;6.50;4.00;;;;;;;;5010482;28;8894;-72
2023/05/07 21:08:20;;;;;;;;;6.00;4.00;;;;;;;;5013697;28;8803;-73
2023/05/07 21:10:46;;;;;;;;;5.50;5.50;;;;;;;;5013522;28;10363;-74
2023/05/07 21:13:11;;;;;;;;;7.75;5.75;;;;;;;;5013580;28;8811;-73
2023/05/07 21:15:37;;;;;;;;;6.00;6.00;;;;;;;;5013469;28;8796;-80
2023/05/07 21:18:02;;;;;;;;;9.00;7.50;;;;;;;;5013609;28;8977;-80
2023/05/07 21:20:30;;;;;;;;;5.25;5.25;;;;;;;;5013248;28;8878;-73
2023/05/07 21:22:56;;;;;;;;;4.00;4.00;;;;;;;;5013658;28;8796;-78
2023/05/07 21:25:21;;;;;;;;;4.00;4.00;;;;;;;;5012473;28;11244;-78
2023/05/07 21:27:46;;;;;;;;;7.00;6.00;;;;;;;;5012257;28;8823;-78
2023/05/07 21:30:12;;;;;;;;;7.00;7.00;;;;;;;;5013305;28;9527;-78
2023/05/07 21:32:37;;;;;;;;;6.25;3.25;;;;;;;;5012737;28;8931;-77
2023/05/07 21:35:03;;;;;;;;;6.75;5.50;;;;;;;;5013181;28;8858;-79
2023/05/07 21:37:28;;;;;;;;;7.25;7.25;;;;;;;;5013518;28;9539;-80
2023/05/07 21:39:53;;;;;;;;;6.00;6.00;;;;;;;;5013170;28;8800;-80
2023/05/07 21:42:18;;;;;;;;;6.00;3.00;;;;;;;;5013195;28;8838;-77
2023/05/07 21:44:44;;;;;;;;;3.50;3.50;;;;;;;;5013120;28;8895;-77
2023/05/07 21:47:09;;;;;;;;;4.00;4.00;;;;;;;;5013060;28;8784;-77
2023/05/07 21:49:35;;;;;;;;;7.00;4.00;;;;;;;;5012923;28;9582;-75
2023/05/07 21:52:00;;;;;;;;;3.00;3.00;;;;;;;;5013132;28;8842;-77
2023/05/07 21:54:26;;;;;;;;;2.75;2.75;;;;;;;;5012888;28;8823;-77
2023/05/07 21:56:51;;;;;;;;;8.00;6.75;;;;;;;;5013003;28;8787;-77
2023/05/07 21:59:16;;;;;;;;;6.00;4.00;;;;;;;;5012807;28;8822;-77
2023/05/07 22:01:41;;;;;;;;;6.25;6.25;;;;;;;;5014292;28;8835;-77
2023/05/07 22:04:07;;;;;;;;;7.50;5.00;;;;;;;;5015754;28;8814;-77
2023/05/07 22:06:32;;;;;;;;;6.00;5.00;;;;;;;;5012209;28;8812;-76
2023/05/07 22:08:57;;;;;;;;;6.00;6.00;;;;;;;;5011148;28;8839;-79
2023/05/07 22:11:23;;;;;;;;;7.75;7.00;;;;;;;;5012513;28;9574;-78
2023/05/07 22:13:48;;;;;;;;;7.50;6.50;;;;;;;;5012483;28;8800;-78
2023/05/07 22:16:13;;;;;;;;;9.00;4.00;;;;;;;;5012268;28;8792;-77
2023/05/07 22:18:38;;;;;;;;;7.00;5.00;;;;;;;;5010924;28;9536;-78
2023/05/07 22:21:04;;;;;;;;;6.00;4.50;;;;;;;;5011733;28;8843;-79
2023/05/07 22:23:29;;;;;;;;;4.00;4.00;;;;;;;;5011981;28;8784;-78
2023/05/07 22:25:54;;;;;;;;;4.50;4.50;;;;;;;;5012040;28;8818;-79
2023/05/07 22:28:20;;;;;;;;;7.25;4.00;;;;;;;;5012015;28;9532;-79
2023/05/07 22:30:45;;;;;;;;;6.00;6.00;;;;;;;;5011869;28;8819;-77
2023/05/07 22:33:10;;;;;;;;;4.00;4.00;;;;;;;;5012065;28;8815;-78
2023/05/07 22:35:36;;;;;;;;;6.75;5.00;;;;;;;;5011848;28;9605;-79
2023/05/07 22:38:01;;;;;;;;;4.00;4.00;;;;;;;;5008067;28;8812;-79
2023/05/07 22:40:26;;;;;;;;;3.00;2.25;;;;;;;;5010367;28;8844;-78
2023/05/07 22:42:52;;;;;;;;;3.50;3.00;;;;;;;;5011704;28;8903;-78
2023/05/07 22:45:17;;;;;;;;;3.75;3.75;;;;;;;;5010918;28;8820;-78
2023/05/07 22:47:42;;;;;;;;;3.00;3.00;;;;;;;;5011392;28;8804;-76
2023/05/07 22:50:08;;;;;;;;;4.00;4.00;;;;;;;;5011922;28;8804;-79
2023/05/07 22:52:33;;;;;;;;;3.25;3.25;;;;;;;;5010851;28;8804;-78
2023/05/07 22:54:58;;;;;;;;;5.50;3.75;;;;;;;;5011885;28;8804;-79
2023/05/07 22:57:24;;;;;;;;;6.00;6.00;;;;;;;;5012127;28;8808;-79
2023/05/07 22:59:52;;;;;;;;;5.50;5.50;;;;;;;;5010670;28;8922;-77
2023/05/07 23:02:17;;;;;;;;;4.00;3.00;;;;;;;;5011901;28;8819;-78
2023/05/07 23:04:43;;;;;;;;;2.50;2.50;;;;;;;;5006956;28;10638;-78
2023/05/07 23:07:08;;;;;;;;;5.50;4.00;;;;;;;;5005357;28;8901;-78
2023/05/07 23:09:33;;;;;;;;;6.75;4.00;;;;;;;;5011318;28;8889;-79
2023/05/07 23:11:58;;;;;;;;;4.00;4.00;;;;;;;;5011292;28;8819;-78
2023/05/07 23:14:24;;;;;;;;;4.00;4.00;;;;;;;;5011614;28;8796;-79
2023/05/07 23:16:49;;;;;;;;;3.00;3.00;;;;;;;;5011534;28;8847;-79
2023/05/07 23:19:14;;;;;;;;;5.50;4.00;;;;;;;;5011165;28;8792;-79
2023/05/07 23:21:39;;;;;;;;;3.75;3.75;;;;;;;;5011281;28;8936;-78
2023/05/07 23:24:05;;;;;;;;;6.50;4.50;;;;;;;;5011505;28;8898;-79
2023/05/07 23:26:30;;;;;;;;;3.75;3.00;;;;;;;;5011545;28;8820;-79
2023/05/07 23:28:56;;;;;;;;;4.75;4.00;;;;;;;;5010924;28;8809;-78
2023/05/07 23:31:21;;;;;;;;;6.25;4.50;;;;;;;;5011147;28;8804;-78
2023/05/07 23:33:46;;;;;;;;;4.00;4.00;;;;;;;;5009792;28;8815;-78
2023/05/07 23:36:11;;;;;;;;;6.00;5.00;;;;;;;;5011220;28;8838;-79
2023/05/07 23:38:37;;;;;;;;;4.50;4.00;;;;;;;;5011598;28;8796;-78
2023/05/07 23:41:02;;;;;;;;;6.00;4.00;;;;;;;;5011461;28;8836;-78
2023/05/07 23:43:27;;;;;;;;;6.75;6.00;;;;;;;;5011032;28;8830;-78
2023/05/07 23:45:53;;;;;;;;;6.00;4.00;;;;;;;;5011108;28;8796;-78
2023/05/07 23:48:18;;;;;;;;;4.00;4.00;;;;;;;;5010408;28;8820;-77
2023/05/07 23:50:44;;;;;;;;;3.25;3.25;;;;;;;;5009538;28;8840;-78
2023/05/07 23:53:09;;;;;;;;;9.00;3.75;;;;;;;;5010980;28;8824;-77
2023/05/07 23:55:34;;;;;;;;;5.00;5.00;;;;;;;;5011073;28;8796;-77
2023/05/07 23:58:00;;;;;;;;;5.00;5.00;;;;;;;;5010999;28;8829;-78
